createdAt,value
2022-11-27T00:00:32.511Z,1019.19
2022-11-27T00:03:05.578Z,1019.14
2022-11-27T00:05:38.501Z,1019.11
2022-11-27T00:08:11.478Z,1019.07
2022-11-27T00:10:44.546Z,1019.03
2022-11-27T00:13:17.442Z,1018.99
2022-11-27T00:15:50.545Z,1018.95
2022-11-27T00:18:23.522Z,1018.90
2022-11-27T00:21:00.261Z,1018.87
2022-11-27T00:23:33.519Z,1018.83
2022-11-27T00:26:06.467Z,1018.79
2022-11-27T00:28:39.560Z,1018.72
2022-11-27T00:31:12.596Z,1018.66
2022-11-27T00:33:45.371Z,1018.61
2022-11-27T00:36:18.526Z,1018.57
2022-11-27T00:38:51.528Z,1018.53
2022-11-27T00:41:24.522Z,1018.48
2022-11-27T00:43:57.530Z,1018.44
2022-11-27T00:46:30.456Z,1018.40
2022-11-27T00:49:03.481Z,1018.35
2022-11-27T00:51:36.509Z,1018.32
2022-11-27T00:54:09.413Z,1018.29
2022-11-27T00:56:42.583Z,1018.27
2022-11-27T00:59:15.590Z,1018.27
2022-11-27T01:01:48.685Z,1018.27
2022-11-27T01:04:21.595Z,1018.28
2022-11-27T01:06:54.597Z,1018.27
2022-11-27T01:09:30.497Z,1018.24
2022-11-27T01:12:03.572Z,1018.23
2022-11-27T01:14:36.260Z,1018.20
2022-11-27T01:17:09.570Z,1018.19
2022-11-27T01:19:42.646Z,1018.20
2022-11-27T01:22:15.706Z,1018.19
2022-11-27T01:24:48.662Z,1018.18
2022-11-27T01:27:21.660Z,1018.18
2022-11-27T01:29:54.549Z,1018.18
2022-11-27T01:32:31.400Z,1018.17
2022-11-27T01:35:04.578Z,1018.18
2022-11-27T01:37:37.673Z,1018.18
2022-11-27T01:40:10.608Z,1018.16
2022-11-27T01:42:43.637Z,1018.15
2022-11-27T01:45:16.665Z,1018.15
2022-11-27T01:47:49.740Z,1018.13
2022-11-27T01:50:22.601Z,1018.10
2022-11-27T01:52:55.701Z,1018.09
2022-11-27T01:55:28.647Z,1018.08
2022-11-27T01:58:01.643Z,1018.08
2022-11-27T02:00:34.672Z,1018.08
2022-11-27T02:03:07.633Z,1018.08
2022-11-27T02:05:40.594Z,1018.09
2022-11-27T02:08:13.626Z,1018.09
2022-11-27T02:10:46.719Z,1018.10
2022-11-27T02:13:19.660Z,1018.06
2022-11-27T02:15:52.723Z,1018.05
2022-11-27T02:18:25.629Z,1018.05
2022-11-27T02:20:58.737Z,1018.02
2022-11-27T02:23:31.640Z,1018.02
2022-11-27T02:26:04.730Z,1017.99
2022-11-27T02:28:37.676Z,1017.97
2022-11-27T02:31:13.619Z,1017.96
2022-11-27T02:33:46.670Z,1017.95
2022-11-27T02:36:19.746Z,1017.93
2022-11-27T02:38:52.654Z,1017.93
2022-11-27T02:41:25.718Z,1017.93
2022-11-27T02:43:58.763Z,1017.96
2022-11-27T02:46:31.882Z,1017.97
2022-11-27T02:49:04.739Z,1017.98
2022-11-27T02:51:37.720Z,1017.96
2022-11-27T02:54:10.743Z,1017.92
2022-11-27T02:56:43.714Z,1017.87
2022-11-27T02:59:16.833Z,1017.83
2022-11-27T03:01:49.800Z,1017.79
2022-11-27T03:04:22.690Z,1017.75
2022-11-27T03:06:55.759Z,1017.72
2022-11-27T03:09:28.789Z,1017.69
2022-11-27T03:12:01.790Z,1017.64
2022-11-27T03:14:34.801Z,1017.60
2022-11-27T03:17:07.832Z,1017.57
2022-11-27T03:19:40.727Z,1017.56
2022-11-27T03:22:13.737Z,1017.56
2022-11-27T03:24:46.806Z,1017.56
2022-11-27T03:27:19.718Z,1017.54
2022-11-27T03:29:52.919Z,1017.55
2022-11-27T03:32:25.839Z,1017.52
2022-11-27T03:34:58.856Z,1017.50
2022-11-27T03:37:31.750Z,1017.46
2022-11-27T03:40:04.772Z,1017.44
2022-11-27T03:42:37.815Z,1017.43
2022-11-27T03:45:10.991Z,1017.42
2022-11-27T03:47:43.849Z,1017.41
2022-11-27T03:50:16.809Z,1017.40
2022-11-27T03:52:49.883Z,1017.38
2022-11-27T03:55:22.833Z,1017.37
2022-11-27T03:57:55.895Z,1017.36
2022-11-27T04:00:28.983Z,1017.33
2022-11-27T04:03:01.890Z,1017.33
2022-11-27T04:05:34.858Z,1017.33
2022-11-27T04:08:07.891Z,1017.32
2022-11-27T04:10:40.845Z,1017.29
2022-11-27T04:13:13.785Z,1017.27
2022-11-27T04:15:46.996Z,1017.25
2022-11-27T04:18:19.931Z,1017.24
2022-11-27T04:20:52.934Z,1017.24
2022-11-27T04:23:25.907Z,1017.24
2022-11-27T04:25:58.911Z,1017.24
2022-11-27T04:28:31.860Z,1017.26
2022-11-27T04:31:04.871Z,1017.25
2022-11-27T04:33:37.869Z,1017.26
2022-11-27T04:36:10.912Z,1017.23
2022-11-27T04:38:43.882Z,1017.21
2022-11-27T04:41:16.857Z,1017.17
2022-11-27T04:43:49.922Z,1017.14
2022-11-27T04:46:23.124Z,1017.12
2022-11-27T04:48:55.843Z,1017.08
2022-11-27T04:51:28.958Z,1017.06
2022-11-27T04:54:03.825Z,1017.03
2022-11-27T04:56:36.908Z,1016.99
2022-11-27T04:59:09.897Z,1017.00
2022-11-27T05:01:43.082Z,1017.01
2022-11-27T05:04:15.940Z,1017.01
2022-11-27T05:06:48.996Z,1017.01
2022-11-27T05:09:21.917Z,1017.02
2022-11-27T05:11:54.904Z,1017.03
2022-11-27T05:14:28.011Z,1017.02
2022-11-27T05:17:06.906Z,1017.02
2022-11-27T05:19:34.130Z,1017.00
2022-11-27T05:22:06.925Z,1016.99
2022-11-27T05:24:40.154Z,1017.00
2022-11-27T05:27:13.016Z,1016.98
2022-11-27T05:29:46.045Z,1016.97
2022-11-27T05:32:18.941Z,1016.95
2022-11-27T05:34:52.164Z,1016.96
2022-11-27T05:37:24.988Z,1016.98
2022-11-27T05:39:57.953Z,1016.97
2022-11-27T05:42:31.065Z,1016.96
2022-11-27T05:45:03.822Z,1016.95
2022-11-27T05:47:36.909Z,1016.93
2022-11-27T05:50:10.085Z,1016.91
2022-11-27T05:52:43.029Z,1016.91
2022-11-27T05:55:16.087Z,1016.90
2022-11-27T05:57:49.007Z,1016.90
2022-11-27T06:00:22.020Z,1016.87
2022-11-27T06:02:55.065Z,1016.85
2022-11-27T06:05:28.201Z,1016.83
2022-11-27T06:08:01.124Z,1016.83
2022-11-27T06:10:33.821Z,1016.83
2022-11-27T06:13:07.093Z,1016.83
2022-11-27T06:15:40.012Z,1016.83
2022-11-27T06:18:13.007Z,1016.85
2022-11-27T06:20:53.125Z,1016.86
2022-11-27T06:23:19.196Z,1016.86
2022-11-27T06:25:52.067Z,1016.87
2022-11-27T06:28:25.095Z,1016.88
2022-11-27T06:30:58.013Z,1016.90
2022-11-27T06:33:31.045Z,1016.88
2022-11-27T06:36:04.002Z,1016.81
2022-11-27T06:38:37.005Z,1016.73
2022-11-27T06:41:10.082Z,1016.66
2022-11-27T06:43:43.159Z,1016.65
2022-11-27T06:46:16.179Z,1016.62
2022-11-27T06:48:49.065Z,1016.58
2022-11-27T06:51:22.175Z,1016.58
2022-11-27T06:53:55.215Z,1016.55
2022-11-27T06:56:28.041Z,1016.52
2022-11-27T06:59:01.115Z,1016.50
2022-11-27T07:01:34.134Z,1016.49
2022-11-27T07:04:07.102Z,1016.51
2022-11-27T07:06:40.130Z,1016.50
2022-11-27T07:09:13.302Z,1016.47
2022-11-27T07:11:46.087Z,1016.42
2022-11-27T07:14:19.101Z,1016.36
2022-11-27T07:16:52.205Z,1016.34
2022-11-27T07:19:25.188Z,1016.32
2022-11-27T07:21:58.183Z,1016.29
2022-11-27T07:24:31.227Z,1016.24
2022-11-27T07:27:04.182Z,1016.21
2022-11-27T07:29:37.149Z,1016.20
2022-11-27T07:32:09.818Z,1016.19
2022-11-27T07:34:43.174Z,1016.19
2022-11-27T07:37:16.117Z,1016.19
2022-11-27T07:40:03.706Z,1016.18
2022-11-27T07:42:38.697Z,1016.21
2022-11-27T07:44:55.122Z,1016.24
2022-11-27T07:47:28.232Z,1016.28
2022-11-27T07:50:01.175Z,1016.29
2022-11-27T07:52:39.537Z,1016.29
2022-11-27T07:55:07.066Z,1016.25
2022-11-27T07:57:39.901Z,1016.23
2022-11-27T08:00:12.883Z,1016.20
2022-11-27T08:02:46.164Z,1016.19
2022-11-27T08:05:19.284Z,1016.17
2022-11-27T08:07:52.265Z,1016.14
2022-11-27T08:10:25.401Z,1016.10
2022-11-27T08:12:58.203Z,1016.04
2022-11-27T08:15:31.193Z,1016.02
2022-11-27T08:18:04.234Z,1015.96
2022-11-27T08:20:37.074Z,1015.93
2022-11-27T08:23:09.910Z,1015.90
2022-11-27T08:25:43.417Z,1015.89
2022-11-27T08:28:15.926Z,1015.88
2022-11-27T08:30:49.299Z,1015.85
2022-11-27T08:33:22.208Z,1015.81
2022-11-27T08:35:55.214Z,1015.78
2022-11-27T08:38:28.278Z,1015.75
2022-11-27T08:41:02.177Z,1015.73
2022-11-27T08:43:35.361Z,1015.72
2022-11-27T08:46:08.061Z,1015.75
2022-11-27T08:48:41.179Z,1015.80
2022-11-27T08:51:14.256Z,1015.83
2022-11-27T08:53:47.194Z,1015.85
2022-11-27T08:56:20.423Z,1015.87
2022-11-27T08:58:52.955Z,1015.86
2022-11-27T09:01:26.359Z,1015.84
2022-11-27T09:03:59.066Z,1015.83
2022-11-27T09:06:32.083Z,1015.81
2022-11-27T09:09:05.160Z,1015.78
2022-11-27T09:11:38.183Z,1015.74
2022-11-27T09:14:11.401Z,1015.71
2022-11-27T09:16:44.294Z,1015.68
2022-11-27T09:19:17.203Z,1015.64
2022-11-27T09:21:50.186Z,1015.63
2022-11-27T09:24:23.402Z,1015.59
2022-11-27T09:26:56.266Z,1015.56
2022-11-27T09:29:29.326Z,1015.52
2022-11-27T09:32:02.389Z,1015.49
2022-11-27T09:34:37.640Z,1015.49
2022-11-27T09:37:09.224Z,1015.49
2022-11-27T09:39:42.316Z,1015.46
2022-11-27T09:42:15.445Z,1015.46
2022-11-27T09:44:48.429Z,1015.47
2022-11-27T09:47:21.292Z,1015.51
2022-11-27T09:49:54.041Z,1015.51
2022-11-27T09:52:27.414Z,1015.48
2022-11-27T09:55:00.413Z,1015.45
2022-11-27T09:57:33.536Z,1015.42
2022-11-27T10:02:56.584Z,1015.35
2022-11-27T10:05:29.341Z,1015.32
2022-11-27T10:08:06.714Z,1015.28
2022-11-27T10:10:35.220Z,1015.26
2022-11-27T10:13:08.437Z,1015.23
2022-11-27T10:15:41.495Z,1015.19
2022-11-27T10:18:14.369Z,1015.14
2022-11-27T10:20:47.417Z,1015.09
2022-11-27T10:23:20.423Z,1015.05
2022-11-27T10:25:53.519Z,1015.03
2022-11-27T10:28:26.623Z,1014.97
2022-11-27T10:30:59.229Z,1014.92
2022-11-27T10:33:32.369Z,1014.84
2022-11-27T10:36:05.481Z,1014.78
2022-11-27T10:38:38.366Z,1014.72
2022-11-27T10:41:18.625Z,1014.66
2022-11-27T10:43:44.544Z,1014.62
2022-11-27T10:46:17.468Z,1014.57
2022-11-27T10:48:50.567Z,1014.54
2022-11-27T10:51:23.428Z,1014.48
2022-11-27T10:53:56.415Z,1014.44
2022-11-27T10:56:29.441Z,1014.39
2022-11-27T10:59:02.641Z,1014.33
2022-11-27T11:01:35.291Z,1014.28
2022-11-27T11:04:24.677Z,1014.24
2022-11-27T11:06:41.371Z,1014.19
2022-11-27T11:09:14.525Z,1014.11
2022-11-27T11:11:47.547Z,1014.05
2022-11-27T11:14:20.657Z,1014.00
2022-11-27T11:16:53.538Z,1013.97
2022-11-27T11:19:26.244Z,1013.93
2022-11-27T11:21:59.189Z,1013.87
2022-11-27T11:24:32.336Z,1013.82
2022-11-27T11:27:05.254Z,1013.78
2022-11-27T11:29:38.336Z,1013.75
2022-11-27T11:32:11.324Z,1013.73
2022-11-27T11:34:44.232Z,1013.71
2022-11-27T11:37:17.447Z,1013.65
2022-11-27T11:39:50.387Z,1013.59
2022-11-27T11:42:23.479Z,1013.54
2022-11-27T11:45:10.382Z,1013.50
2022-11-27T11:47:43.427Z,1013.47
2022-11-27T11:50:16.318Z,1013.46
2022-11-27T11:52:49.250Z,1013.45
2022-11-27T11:55:22.511Z,1013.44
2022-11-27T11:57:55.661Z,1013.42
2022-11-27T12:00:31.577Z,1013.40
2022-11-27T12:03:01.465Z,1013.38
2022-11-27T12:05:34.287Z,1013.37
2022-11-27T12:08:07.398Z,1013.35
2022-11-27T12:10:40.411Z,1013.33
2022-11-27T12:13:13.304Z,1013.29
2022-11-27T12:15:46.536Z,1013.24
2022-11-27T12:18:19.636Z,1013.18
2022-11-27T12:20:52.448Z,1013.13
2022-11-27T12:23:25.658Z,1013.10
2022-11-27T12:25:58.643Z,1013.05
2022-11-27T12:28:31.410Z,1013.01
2022-11-27T12:31:04.570Z,1012.97
2022-11-27T12:33:37.433Z,1012.93
2022-11-27T12:36:10.296Z,1012.88
2022-11-27T12:38:43.306Z,1012.84
2022-11-27T12:41:16.321Z,1012.81
2022-11-27T12:43:50.398Z,1012.77
2022-11-27T12:46:23.962Z,1012.74
2022-11-27T12:48:56.605Z,1012.72
2022-11-27T12:51:29.679Z,1012.71
2022-11-27T12:54:03.702Z,1012.67
2022-11-27T12:56:36.611Z,1012.60
2022-11-27T12:59:09.566Z,1012.55
2022-11-27T13:01:42.821Z,1012.49
2022-11-27T13:04:15.638Z,1012.46
2022-11-27T13:06:48.538Z,1012.43
2022-11-27T13:09:21.422Z,1012.43
2022-11-27T13:11:54.493Z,1012.41
2022-11-27T13:14:27.496Z,1012.40
2022-11-27T13:17:00.694Z,1012.38
2022-11-27T13:19:33.654Z,1012.38
2022-11-27T13:22:06.492Z,1012.37
2022-11-27T13:24:39.821Z,1012.37
2022-11-27T13:27:12.646Z,1012.35
2022-11-27T13:29:45.650Z,1012.34
2022-11-27T13:32:18.971Z,1012.31
2022-11-27T13:34:52.746Z,1012.27
2022-11-27T13:37:25.751Z,1012.20
2022-11-27T13:39:58.754Z,1012.14
2022-11-27T13:42:31.690Z,1012.08
2022-11-27T13:45:04.798Z,1012.06
2022-11-27T13:47:37.884Z,1012.05
2022-11-27T13:50:10.786Z,1012.02
2022-11-27T13:52:43.461Z,1012.00
2022-11-27T13:55:16.449Z,1011.96
2022-11-27T13:57:49.623Z,1011.91
2022-11-27T14:00:22.624Z,1011.86
2022-11-27T14:02:55.928Z,1011.82
2022-11-27T14:05:28.744Z,1011.77
2022-11-27T14:08:01.841Z,1011.69
2022-11-27T14:10:34.535Z,1011.59
2022-11-27T14:13:07.454Z,1011.49
2022-11-27T14:15:40.553Z,1011.42
2022-11-27T14:18:13.881Z,1011.36
2022-11-27T14:20:48.727Z,1011.33
2022-11-27T14:23:21.756Z,1011.28
2022-11-27T14:25:54.863Z,1011.21
2022-11-27T14:28:27.833Z,1011.14
2022-11-27T14:31:00.862Z,1011.07
2022-11-27T14:33:47.444Z,1011.02
2022-11-27T14:36:06.767Z,1010.98
2022-11-27T14:38:39.812Z,1010.94
2022-11-27T14:41:12.486Z,1010.92
2022-11-27T14:43:45.638Z,1010.89
2022-11-27T14:46:18.634Z,1010.88
2022-11-27T14:48:52.054Z,1010.86
2022-11-27T14:51:24.809Z,1010.83
2022-11-27T14:53:57.792Z,1010.82
2022-11-27T14:56:30.883Z,1010.84
2022-11-27T14:59:03.948Z,1010.86
2022-11-27T15:01:36.691Z,1010.85
2022-11-27T15:04:09.931Z,1010.85
2022-11-27T15:06:42.838Z,1010.85
2022-11-27T15:09:31.248Z,1010.81
2022-11-27T15:11:56.324Z,1010.76
2022-11-27T15:14:21.957Z,1010.73
2022-11-27T15:16:54.923Z,1010.69
2022-11-27T15:19:28.007Z,1010.63
2022-11-27T15:22:00.831Z,1010.58
2022-11-27T15:24:33.852Z,1010.54
2022-11-27T15:27:06.906Z,1010.51
2022-11-27T15:29:40.386Z,1010.49
2022-11-27T15:32:12.946Z,1010.47
2022-11-27T15:34:48.895Z,1010.45
2022-11-27T15:37:21.928Z,1010.41
2022-11-27T15:39:54.902Z,1010.37
2022-11-27T15:42:27.866Z,1010.35
2022-11-27T15:45:00.972Z,1010.33
2022-11-27T15:47:33.610Z,1010.30
2022-11-27T15:50:07.134Z,1010.27
2022-11-27T15:52:39.926Z,1010.24
2022-11-27T15:55:13.006Z,1010.21
2022-11-27T15:57:45.914Z,1010.20
2022-11-27T16:00:19.026Z,1010.18
2022-11-27T16:02:52.042Z,1010.16
2022-11-27T16:05:25.178Z,1010.14
2022-11-27T16:07:58.088Z,1010.11
2022-11-27T16:10:30.925Z,1010.07
2022-11-27T16:13:03.967Z,1010.03
2022-11-27T16:15:37.022Z,1010.00
2022-11-27T16:18:09.775Z,1009.97
2022-11-27T16:20:42.777Z,1009.95
2022-11-27T16:23:16.019Z,1009.92
2022-11-27T16:25:48.683Z,1009.90
2022-11-27T16:28:22.009Z,1009.89
2022-11-27T16:30:54.771Z,1009.89
2022-11-27T16:33:27.996Z,1009.89
2022-11-27T16:36:01.168Z,1009.89
2022-11-27T16:38:33.740Z,1009.86
2022-11-27T16:41:06.767Z,1009.83
2022-11-27T16:43:40.013Z,1009.79
2022-11-27T16:46:13.181Z,1009.75
2022-11-27T16:48:46.090Z,1009.71
2022-11-27T16:51:19.210Z,1009.68
2022-11-27T16:53:52.137Z,1009.66
2022-11-27T16:56:25.071Z,1009.63
2022-11-27T16:59:02.324Z,1009.61
2022-11-27T17:01:30.942Z,1009.58
2022-11-27T17:04:03.812Z,1009.54
2022-11-27T17:06:37.197Z,1009.48
2022-11-27T17:09:09.889Z,1009.44
2022-11-27T17:11:42.876Z,1009.39
2022-11-27T17:14:15.751Z,1009.35
2022-11-27T17:16:49.003Z,1009.31
2022-11-27T17:19:22.124Z,1009.27
2022-11-27T17:21:54.868Z,1009.23
2022-11-27T17:24:27.867Z,1009.17
2022-11-27T17:27:00.821Z,1009.11
2022-11-27T17:29:34.105Z,1009.03
2022-11-27T17:32:06.901Z,1009.01
2022-11-27T17:34:39.947Z,1008.99
2022-11-27T17:37:12.995Z,1009.00
2022-11-27T17:39:45.915Z,1009.02
2022-11-27T17:42:22.615Z,1009.02
2022-11-27T17:44:51.834Z,1009.02
2022-11-27T17:47:38.860Z,1009.01
2022-11-27T17:50:11.797Z,1008.99
2022-11-27T17:52:45.239Z,1008.98
2022-11-27T17:55:18.111Z,1008.97
2022-11-27T17:57:51.097Z,1008.97
2022-11-27T18:00:23.905Z,1008.95
2022-11-27T18:02:57.088Z,1008.90
2022-11-27T18:05:29.823Z,1008.82
2022-11-27T18:08:03.065Z,1008.75
2022-11-27T18:10:35.973Z,1008.67
2022-11-27T18:13:09.122Z,1008.60
2022-11-27T18:15:42.171Z,1008.52
2022-11-27T18:18:15.157Z,1008.45
2022-11-27T18:20:48.191Z,1008.41
2022-11-27T18:23:21.384Z,1008.39
2022-11-27T18:25:53.869Z,1008.38
2022-11-27T18:28:26.846Z,1008.35
2022-11-27T18:31:00.023Z,1008.28
2022-11-27T18:33:32.979Z,1008.25
2022-11-27T18:36:05.908Z,1008.23
2022-11-27T18:38:39.275Z,1008.21
2022-11-27T18:41:12.165Z,1008.18
2022-11-27T18:43:48.160Z,1008.12
2022-11-27T18:46:20.909Z,1008.07
2022-11-27T18:48:53.930Z,1008.01
2022-11-27T18:51:26.890Z,1007.97
2022-11-27T18:53:59.999Z,1007.94
2022-11-27T18:56:33.034Z,1007.92
2022-11-27T18:59:05.922Z,1007.86
2022-11-27T19:01:42.299Z,1007.83
2022-11-27T19:04:12.244Z,1007.79
2022-11-27T19:06:45.016Z,1007.76
2022-11-27T19:09:18.348Z,1007.73
2022-11-27T19:11:51.209Z,1007.67
2022-11-27T19:14:24.011Z,1007.58
2022-11-27T19:16:57.164Z,1007.54
2022-11-27T19:22:03.031Z,1007.53
2022-11-27T19:24:36.184Z,1007.52
2022-11-27T19:27:08.984Z,1007.49
2022-11-27T19:29:42.229Z,1007.46
2022-11-27T19:32:15.300Z,1007.43
2022-11-27T19:34:48.066Z,1007.39
2022-11-27T19:37:33.444Z,1007.37
2022-11-27T19:39:54.221Z,1007.32
2022-11-27T19:42:27.031Z,1007.29
2022-11-27T19:45:00.011Z,1007.28
2022-11-27T19:47:32.997Z,1007.26
2022-11-27T19:50:06.076Z,1007.23
2022-11-27T19:52:39.049Z,1007.22
2022-11-27T19:55:12.285Z,1007.22
2022-11-27T19:57:45.306Z,1007.20
2022-11-27T20:00:17.982Z,1007.20
2022-11-27T20:02:51.189Z,1007.21
2022-11-27T20:05:24.122Z,1007.21
2022-11-27T20:07:57.334Z,1007.22
2022-11-27T20:10:30.137Z,1007.20
2022-11-27T20:13:03.021Z,1007.15
2022-11-27T20:15:36.091Z,1007.13
2022-11-27T20:18:09.429Z,1007.12
2022-11-27T20:20:42.180Z,1007.11
2022-11-27T20:23:15.321Z,1007.12
2022-11-27T20:25:48.514Z,1007.11
2022-11-27T20:28:21.424Z,1007.09
2022-11-27T20:30:54.224Z,1007.05
2022-11-27T20:33:33.038Z,1007.00
2022-11-27T20:36:06.178Z,1006.97
2022-11-27T20:38:39.081Z,1006.95
2022-11-27T20:41:18.052Z,1006.94
2022-11-27T20:43:45.220Z,1006.93
2022-11-27T20:46:18.394Z,1006.91
2022-11-27T20:48:51.212Z,1006.89
2022-11-27T20:51:24.093Z,1006.90
2022-11-27T20:53:57.105Z,1006.89
2022-11-27T20:56:30.370Z,1006.89
2022-11-27T20:59:03.351Z,1006.89
2022-11-27T21:01:36.323Z,1006.86
2022-11-27T21:04:09.117Z,1006.84
2022-11-27T21:06:44.284Z,1006.84
2022-11-27T21:09:15.389Z,1006.82
2022-11-27T21:11:48.230Z,1006.81
2022-11-27T21:14:21.269Z,1006.79
2022-11-27T21:16:54.295Z,1006.77
2022-11-27T21:19:27.493Z,1006.75
2022-11-27T21:22:00.447Z,1006.72
2022-11-27T21:24:33.468Z,1006.70
2022-11-27T21:27:06.364Z,1006.68
2022-11-27T21:29:39.576Z,1006.65
2022-11-27T21:32:12.212Z,1006.63
2022-11-27T21:34:45.513Z,1006.61
2022-11-27T21:37:18.155Z,1006.58
2022-11-27T21:39:51.241Z,1006.55
2022-11-27T21:42:24.357Z,1006.52
2022-11-27T21:44:57.382Z,1006.49
2022-11-27T21:47:30.355Z,1006.45
2022-11-27T21:50:03.288Z,1006.42
2022-11-27T21:52:36.173Z,1006.38
2022-11-27T21:55:12.185Z,1006.36
2022-11-27T21:57:42.247Z,1006.30
2022-11-27T22:00:15.289Z,1006.25
2022-11-27T22:02:48.276Z,1006.20
2022-11-27T22:05:21.240Z,1006.17
2022-11-27T22:07:54.400Z,1006.14
2022-11-27T22:10:27.280Z,1006.12
2022-11-27T22:13:00.230Z,1006.10
2022-11-27T22:15:33.614Z,1006.09
2022-11-27T22:18:06.604Z,1006.08
2022-11-27T22:20:39.298Z,1006.05
2022-11-27T22:23:12.631Z,1006.04
2022-11-27T22:25:45.556Z,1006.05
2022-11-27T22:28:18.591Z,1006.03
2022-11-27T22:30:51.523Z,1006.01
2022-11-27T22:33:24.582Z,1005.98
2022-11-27T22:35:57.512Z,1005.93
2022-11-27T22:38:30.511Z,1005.88
2022-11-27T22:41:03.537Z,1005.83
2022-11-27T22:43:36.614Z,1005.78
2022-11-27T22:46:09.602Z,1005.75
2022-11-27T22:48:42.598Z,1005.71
2022-11-27T22:51:15.580Z,1005.65
2022-11-27T22:53:48.656Z,1005.60
2022-11-27T22:56:21.604Z,1005.57
2022-11-27T22:59:11.292Z,1005.54
2022-11-27T23:01:27.700Z,1005.54
2022-11-27T23:04:00.766Z,1005.56
2022-11-27T23:06:33.644Z,1005.56
2022-11-27T23:09:06.669Z,1005.59
2022-11-27T23:11:39.671Z,1005.62
2022-11-27T23:14:12.581Z,1005.64
2022-11-27T23:16:45.833Z,1005.63
2022-11-27T23:19:18.384Z,1005.63
2022-11-27T23:21:51.599Z,1005.62
2022-11-27T23:24:24.696Z,1005.58
2022-11-27T23:26:57.715Z,1005.57
2022-11-27T23:29:30.702Z,1005.54
2022-11-27T23:32:03.823Z,1005.52
2022-11-27T23:34:36.696Z,1005.48
2022-11-27T23:37:09.581Z,1005.43
2022-11-27T23:39:42.756Z,1005.39
2022-11-27T23:42:15.651Z,1005.34
2022-11-27T23:44:48.704Z,1005.30
2022-11-27T23:47:21.695Z,1005.25
2022-11-27T23:49:54.724Z,1005.21
2022-11-27T23:52:27.682Z,1005.18
2022-11-27T23:55:00.673Z,1005.15
2022-11-27T23:57:33.623Z,1005.13
